createdAt,value
2019-05-15T00:00:49.243Z,55.10
2019-05-15T00:03:19.552Z,55.80
2019-05-15T00:05:45.069Z,57.80
2019-05-15T00:08:11.919Z,56.80
2019-05-15T00:10:39.130Z,58.60
2019-05-15T00:13:05.953Z,57.70
2019-05-15T00:15:32.527Z,58.10
2019-05-15T00:17:58.983Z,57.90
2019-05-15T00:20:25.525Z,57.70
2019-05-15T00:22:52.361Z,56.80
2019-05-15T00:25:19.004Z,58.80
2019-05-15T00:27:45.482Z,60.00
2019-05-15T00:30:12.240Z,59.80
2019-05-15T00:32:39.493Z,58.10
2019-05-15T00:35:06.360Z,59.30
2019-05-15T00:37:32.928Z,58.60
2019-05-15T00:39:59.329Z,59.10
2019-05-15T00:42:25.756Z,60.00
2019-05-15T00:44:52.317Z,60.30
2019-05-15T00:47:18.687Z,60.60
2019-05-15T00:49:45.137Z,61.60
2019-05-15T00:52:12.387Z,63.90
2019-05-15T00:54:38.948Z,64.80
2019-05-15T00:57:05.548Z,64.70
2019-05-15T00:59:32.009Z,63.70
2019-05-15T01:01:59.447Z,62.90
2019-05-15T01:04:28.054Z,64.40
2019-05-15T01:06:54.490Z,64.70
2019-05-15T01:09:20.960Z,64.90
2019-05-15T01:11:48.758Z,64.30
2019-05-15T01:14:15.384Z,66.10
2019-05-15T01:16:42.192Z,66.10
2019-05-15T01:19:09.201Z,66.70
2019-05-15T01:21:35.808Z,64.30
2019-05-15T01:24:02.492Z,62.60
2019-05-15T01:26:28.935Z,65.10
2019-05-15T01:28:55.413Z,63.80
2019-05-15T01:31:21.965Z,64.20
2019-05-15T01:33:48.488Z,64.70
2019-05-15T01:36:15.040Z,64.60
2019-05-15T01:38:41.587Z,67.30
2019-05-15T01:41:09.722Z,64.00
2019-05-15T01:43:38.063Z,63.30
2019-05-15T01:46:05.001Z,62.00
2019-05-15T01:48:31.769Z,60.60
2019-05-15T01:50:58.709Z,64.30
2019-05-15T01:53:25.284Z,61.80
2019-05-15T01:55:52.559Z,60.00
2019-05-15T01:58:19.217Z,58.70
2019-05-15T02:00:48.203Z,61.60
2019-05-15T02:03:14.168Z,57.90
2019-05-15T02:05:41.205Z,58.10
2019-05-15T02:08:08.319Z,58.80
2019-05-15T02:10:34.937Z,59.50
2019-05-15T02:13:01.735Z,60.00
2019-05-15T02:15:28.651Z,63.10
2019-05-15T02:17:55.744Z,63.30
2019-05-15T02:20:22.218Z,63.80
2019-05-15T02:22:48.772Z,64.60
2019-05-15T02:25:15.377Z,63.40
2019-05-15T02:27:41.807Z,65.40
2019-05-15T02:30:22.499Z,62.80
2019-05-15T02:32:39.428Z,61.70
2019-05-15T02:35:05.407Z,63.30
2019-05-15T02:37:32.080Z,66.00
2019-05-15T02:39:59.029Z,65.60
2019-05-15T02:42:28.733Z,65.50
2019-05-15T02:44:53.910Z,64.10
2019-05-15T02:47:20.455Z,65.10
2019-05-15T02:49:48.620Z,66.20
2019-05-15T02:52:15.184Z,66.60
2019-05-15T02:54:41.668Z,65.00
2019-05-15T02:57:09.830Z,67.20
2019-05-15T02:59:39.342Z,68.60
2019-05-15T03:02:05.153Z,69.70
2019-05-15T03:04:31.599Z,70.10
2019-05-15T03:07:00.309Z,70.60
2019-05-15T03:09:29.449Z,70.10
2019-05-15T03:11:55.113Z,71.30
2019-05-15T03:14:21.799Z,73.30
2019-05-15T03:16:49.790Z,73.30
2019-05-15T03:19:19.264Z,73.10
2019-05-15T03:21:45.064Z,75.30
2019-05-15T03:24:11.617Z,73.20
2019-05-15T03:26:39.410Z,72.80
2019-05-15T03:29:09.492Z,71.00
2019-05-15T03:31:50.782Z,71.50
2019-05-15T03:34:03.963Z,72.60
2019-05-15T03:36:31.929Z,73.00
2019-05-15T03:38:59.372Z,74.60
2019-05-15T03:41:25.926Z,76.10
2019-05-15T03:43:52.706Z,77.10
2019-05-15T03:46:20.161Z,77.80
2019-05-15T03:48:48.756Z,79.80
2019-05-15T03:51:15.230Z,80.10
2019-05-15T03:53:41.710Z,80.50
2019-05-15T03:56:09.743Z,80.80
2019-05-15T03:58:39.745Z,83.20
2019-05-15T04:01:25.485Z,83.60
2019-05-15T04:03:33.529Z,83.60
2019-05-15T04:06:00.627Z,82.80
2019-05-15T04:08:29.905Z,83.60
2019-05-15T04:10:55.554Z,82.20
2019-05-15T04:13:22.092Z,84.50
2019-05-15T04:15:50.149Z,83.50
2019-05-15T04:18:19.689Z,82.00
2019-05-15T04:20:45.217Z,81.00
2019-05-15T04:23:15.467Z,80.30
2019-05-15T04:25:43.845Z,80.50
2019-05-15T04:28:11.704Z,83.00
2019-05-15T04:30:39.307Z,82.90
2019-05-15T04:33:09.079Z,81.80
2019-05-15T04:35:34.484Z,80.70
2019-05-15T04:38:00.866Z,80.10
2019-05-15T04:40:29.943Z,81.00
2019-05-15T04:42:58.997Z,83.80
2019-05-15T04:45:24.284Z,83.60
2019-05-15T04:47:50.897Z,84.70
2019-05-15T04:50:19.301Z,85.80
2019-05-15T04:52:45.811Z,84.60
2019-05-15T04:55:12.601Z,84.80
2019-05-15T04:57:40.437Z,83.30
2019-05-15T05:00:09.633Z,84.70
2019-05-15T05:02:39.890Z,80.30
2019-05-15T05:05:05.817Z,78.60
2019-05-15T05:07:33.276Z,77.90
2019-05-15T05:09:59.951Z,77.70
2019-05-15T05:12:28.950Z,74.80
2019-05-15T05:14:54.994Z,74.60
2019-05-15T05:17:21.765Z,75.70
2019-05-15T05:19:51.261Z,74.10
2019-05-15T05:22:18.694Z,73.20
2019-05-15T05:24:45.168Z,73.20
2019-05-15T05:27:11.920Z,73.30
2019-05-15T05:29:38.719Z,74.10
2019-05-15T05:32:05.347Z,68.30
2019-05-15T05:34:31.901Z,65.10
2019-05-15T05:36:58.956Z,65.00
2019-05-15T05:39:25.527Z,64.70
2019-05-15T05:41:51.922Z,64.70
2019-05-15T05:44:18.883Z,64.20
2019-05-15T05:46:45.653Z,63.30
2019-05-15T05:49:12.129Z,56.20
2019-05-15T05:51:38.815Z,54.60
2019-05-15T05:54:05.644Z,50.00
2019-05-15T05:56:32.088Z,48.20
2019-05-15T05:58:58.772Z,44.60
2019-05-15T06:01:28.029Z,39.60
2019-05-15T06:03:53.633Z,42.10
2019-05-15T06:06:20.206Z,40.50
2019-05-15T06:08:47.983Z,38.40
2019-05-15T06:11:15.087Z,39.50
2019-05-15T06:13:41.555Z,40.50
2019-05-15T06:16:08.590Z,38.80
2019-05-15T06:18:35.201Z,39.60
2019-05-15T06:21:01.679Z,38.20
2019-05-15T06:23:33.607Z,37.10
2019-05-15T06:25:59.011Z,38.10
2019-05-15T06:28:44.648Z,38.20
2019-05-15T06:31:11.027Z,36.60
2019-05-15T06:33:38.407Z,35.70
2019-05-15T06:36:05.239Z,35.90
2019-05-15T06:38:31.600Z,38.30
2019-05-15T06:40:58.347Z,37.80
2019-05-15T06:43:24.841Z,34.40
2019-05-15T06:45:51.344Z,35.60
2019-05-15T06:48:18.435Z,35.90
2019-05-15T06:50:45.088Z,33.20
2019-05-15T06:53:11.544Z,33.20
2019-05-15T06:55:38.810Z,32.80
2019-05-15T06:58:05.771Z,32.60
2019-05-15T07:00:32.420Z,30.90
2019-05-15T07:02:59.369Z,30.40
2019-05-15T07:05:26.007Z,29.10
2019-05-15T07:07:53.162Z,25.60
2019-05-15T07:10:19.812Z,24.60
2019-05-15T07:12:50.768Z,26.50
2019-05-15T07:15:15.646Z,25.70
2019-05-15T07:17:42.581Z,22.80
2019-05-15T07:20:10.238Z,23.50
2019-05-15T07:22:39.061Z,23.90
2019-05-15T07:25:08.719Z,22.00
2019-05-15T07:27:35.060Z,20.20
2019-05-15T07:30:02.441Z,21.20
2019-05-15T07:32:29.003Z,20.40
2019-05-15T07:34:57.684Z,21.70
2019-05-15T07:37:23.853Z,18.30
2019-05-15T07:39:50.352Z,19.70
2019-05-15T07:42:18.436Z,20.70
2019-05-15T07:44:48.028Z,19.80
2019-05-15T07:47:14.118Z,20.20
2019-05-15T07:49:40.708Z,18.60
2019-05-15T07:52:08.595Z,17.30
2019-05-15T07:54:35.307Z,18.50
2019-05-15T07:57:01.780Z,18.30
2019-05-15T07:59:28.337Z,17.90
2019-05-15T08:01:54.813Z,17.70
2019-05-15T08:04:28.715Z,18.10
2019-05-15T08:06:49.984Z,18.40
2019-05-15T08:09:17.979Z,18.50
2019-05-15T08:11:44.516Z,17.70
2019-05-15T08:14:11.335Z,17.40
2019-05-15T08:16:39.617Z,18.10
2019-05-15T08:19:08.439Z,17.00
2019-05-15T08:21:34.356Z,17.90
2019-05-15T08:24:00.923Z,16.70
2019-05-15T08:26:28.293Z,14.10
2019-05-15T08:28:55.215Z,12.80
2019-05-15T08:31:21.577Z,11.90
2019-05-15T08:33:48.332Z,9.90
2019-05-15T08:36:14.895Z,10.10
2019-05-15T08:38:41.464Z,9.70
2019-05-15T08:41:11.409Z,9.20
2019-05-15T08:43:38.231Z,8.40
2019-05-15T08:46:08.010Z,7.50
2019-05-15T08:48:33.822Z,7.50
2019-05-15T08:51:00.741Z,6.90
2019-05-15T08:53:28.512Z,4.40
2019-05-15T08:55:55.378Z,3.60
2019-05-15T08:58:21.860Z,4.00
2019-05-15T09:00:52.474Z,5.60
2019-05-15T09:03:18.327Z,3.70
2019-05-15T09:05:44.987Z,3.90
2019-05-15T09:08:11.479Z,3.20
2019-05-15T09:10:38.485Z,5.10
2019-05-15T09:13:05.371Z,3.20
2019-05-15T09:15:31.935Z,1.70
2019-05-15T09:18:11.130Z,1.40
2019-05-15T09:20:28.756Z,1.80
2019-05-15T09:22:55.096Z,2.30
2019-05-15T09:25:21.541Z,1.00
2019-05-15T09:27:48.810Z,1.50
2019-05-15T09:30:18.084Z,2.80
2019-05-15T09:32:43.744Z,3.20
2019-05-15T09:35:14.080Z,3.10
2019-05-15T09:37:40.553Z,2.70
2019-05-15T09:40:08.798Z,2.40
2019-05-15T09:42:38.659Z,2.40
2019-05-15T09:45:05.974Z,1.80
2019-05-15T09:47:32.876Z,3.40
2019-05-15T09:49:59.718Z,2.40
2019-05-15T09:52:26.175Z,3.10
2019-05-15T09:54:52.894Z,2.70
2019-05-15T09:57:19.736Z,2.30
2019-05-15T09:59:48.811Z,2.60
2019-05-15T10:02:15.165Z,3.40
2019-05-15T10:04:42.111Z,2.30
2019-05-15T10:07:08.776Z,1.00
2019-05-15T10:09:35.552Z,1.80
2019-05-15T10:12:03.667Z,1.20
2019-05-15T10:14:31.752Z,2.80
2019-05-15T10:16:58.504Z,1.00
2019-05-15T10:19:25.179Z,1.00
2019-05-15T10:21:53.347Z,1.00
2019-05-15T10:24:20.037Z,1.00
2019-05-15T10:26:48.892Z,1.00
2019-05-15T10:29:14.956Z,1.00
2019-05-15T10:31:41.412Z,1.00
2019-05-15T10:34:09.171Z,1.00
2019-05-15T10:36:38.519Z,1.00
2019-05-15T10:39:08.397Z,1.00
2019-05-15T10:41:34.687Z,1.00
2019-05-15T10:44:01.843Z,1.00
2019-05-15T10:46:28.416Z,1.00
2019-05-15T10:48:54.963Z,1.00
2019-05-15T10:51:21.439Z,1.00
2019-05-15T10:53:48.778Z,1.00
2019-05-15T10:56:15.453Z,1.00
2019-05-15T10:58:41.907Z,1.00
2019-05-15T11:01:11.209Z,1.00
2019-05-15T11:03:39.312Z,2.20
2019-05-15T11:06:05.433Z,1.00
2019-05-15T11:08:32.176Z,1.00
2019-05-15T11:10:58.765Z,1.00
2019-05-15T11:13:25.324Z,1.00
2019-05-15T11:15:52.335Z,1.00
2019-05-15T11:18:18.904Z,1.00
2019-05-15T11:20:48.304Z,1.00
2019-05-15T11:23:19.487Z,1.00
2019-05-15T11:25:45.823Z,1.00
2019-05-15T11:28:13.419Z,1.00
2019-05-15T11:30:40.463Z,1.00
2019-05-15T11:33:09.650Z,1.00
2019-05-15T11:35:36.091Z,1.00
2019-05-15T11:38:02.747Z,1.00
2019-05-15T11:40:29.315Z,1.00
2019-05-15T11:42:56.122Z,1.00
2019-05-15T11:45:22.989Z,1.00
2019-05-15T11:47:49.904Z,1.00
2019-05-15T11:50:19.982Z,1.00
2019-05-15T11:52:45.214Z,1.00
2019-05-15T11:55:12.284Z,1.00
2019-05-15T11:57:46.598Z,1.00
2019-05-15T12:00:14.878Z,1.00
2019-05-15T12:02:38.402Z,1.00
2019-05-15T12:05:08.960Z,1.00
2019-05-15T12:07:34.693Z,1.00
2019-05-15T12:10:01.155Z,1.00
2019-05-15T12:12:31.828Z,1.00
2019-05-15T12:14:56.332Z,1.00
2019-05-15T12:17:22.905Z,1.00
2019-05-15T12:19:55.023Z,1.00
2019-05-15T12:22:17.725Z,1.00
2019-05-15T12:24:44.432Z,1.00
2019-05-15T12:29:39.962Z,1.00
2019-05-15T12:32:25.342Z,1.00
2019-05-15T12:34:35.381Z,1.00
2019-05-15T12:37:02.325Z,1.00
2019-05-15T12:39:30.433Z,1.00
2019-05-15T13:01:44.353Z,1.00
2019-05-15T13:04:10.824Z,1.30
2019-05-15T13:06:48.113Z,1.00
2019-05-15T13:09:08.406Z,1.10
2019-05-15T13:11:34.780Z,1.00
2019-05-15T13:14:01.819Z,1.00
2019-05-15T13:16:28.262Z,1.60
2019-05-15T13:18:55.041Z,1.70
2019-05-15T13:21:21.516Z,1.00
2019-05-15T13:23:48.234Z,2.00
2019-05-15T13:26:23.562Z,2.50
2019-05-15T13:28:43.743Z,2.40
2019-05-15T13:31:10.223Z,2.90
2019-05-15T13:33:38.626Z,3.00
2019-05-15T13:36:05.071Z,3.00
2019-05-15T13:38:31.526Z,3.30
2019-05-15T13:40:58.966Z,2.70
2019-05-15T13:43:25.880Z,4.70
2019-05-15T13:45:52.772Z,4.80
2019-05-15T13:48:19.959Z,4.60
2019-05-15T13:50:48.255Z,3.10
2019-05-15T13:53:14.856Z,4.20
2019-05-15T13:55:42.923Z,4.30
2019-05-15T13:58:09.624Z,3.90
2019-05-15T14:00:39.055Z,3.90
2019-05-15T14:03:04.992Z,5.20
2019-05-15T14:05:31.641Z,4.30
2019-05-15T14:07:58.386Z,6.00
2019-05-15T14:10:25.048Z,4.90
2019-05-15T14:12:51.403Z,4.60
2019-05-15T14:15:18.114Z,5.80
2019-05-15T14:17:44.908Z,4.80
2019-05-15T14:20:12.261Z,4.80
2019-05-15T14:22:39.143Z,5.10
2019-05-15T14:25:08.788Z,4.00
2019-05-15T14:27:36.069Z,5.70
2019-05-15T14:30:05.739Z,6.10
2019-05-15T14:32:38.255Z,6.20
2019-05-15T14:35:00.572Z,5.60
2019-05-15T14:37:28.603Z,6.40
2019-05-15T14:39:57.892Z,5.30
2019-05-15T14:42:24.017Z,7.60
2019-05-15T14:44:50.751Z,8.00
2019-05-15T14:47:19.196Z,7.30
2019-05-15T14:49:46.090Z,7.80
2019-05-15T14:52:14.069Z,8.90
2019-05-15T14:54:40.865Z,7.90
2019-05-15T14:57:08.699Z,9.00
2019-05-15T14:59:35.362Z,8.60
2019-05-15T15:02:03.049Z,10.80
2019-05-15T15:04:29.573Z,10.50
2019-05-15T15:06:58.036Z,11.90
2019-05-15T15:09:24.770Z,11.50
2019-05-15T15:11:51.737Z,10.00
2019-05-15T15:14:18.480Z,11.50
2019-05-15T15:16:44.998Z,10.30
2019-05-15T15:19:11.999Z,10.20
2019-05-15T15:21:38.656Z,10.80
2019-05-15T15:24:05.307Z,10.90
2019-05-15T15:26:31.852Z,10.40
2019-05-15T15:28:59.022Z,9.60
2019-05-15T15:31:25.490Z,11.40
2019-05-15T15:33:52.135Z,11.50
2019-05-15T15:36:18.575Z,11.00
2019-05-15T15:38:45.459Z,12.30
2019-05-15T15:41:12.032Z,11.20
2019-05-15T15:43:38.852Z,11.20
2019-05-15T15:46:05.436Z,13.20
2019-05-15T15:48:31.971Z,11.50
2019-05-15T15:50:58.800Z,11.40
2019-05-15T15:53:25.611Z,13.30
2019-05-15T15:55:52.365Z,10.70
2019-05-15T15:58:20.115Z,11.50
2019-05-15T16:00:48.848Z,10.40
2019-05-15T16:03:15.136Z,11.70
2019-05-15T16:05:41.721Z,13.10
2019-05-15T16:08:08.645Z,12.10
2019-05-15T16:10:37.746Z,11.90
2019-05-15T16:13:03.792Z,13.50
2019-05-15T16:15:30.579Z,13.10
2019-05-15T16:17:59.265Z,13.00
2019-05-15T16:20:25.291Z,14.30
2019-05-15T16:22:52.130Z,13.30
2019-05-15T16:25:18.786Z,13.10
2019-05-15T16:27:45.452Z,13.50
2019-05-15T16:30:12.414Z,13.50
2019-05-15T16:32:40.566Z,13.10
2019-05-15T16:35:08.234Z,13.10
2019-05-15T16:37:35.293Z,13.90
2019-05-15T16:40:04.860Z,13.20
2019-05-15T16:42:31.596Z,14.10
2019-05-15T16:44:58.504Z,12.80
2019-05-15T16:47:25.059Z,13.60
2019-05-15T16:49:51.543Z,13.20
2019-05-15T16:52:18.253Z,14.40
2019-05-15T16:54:45.072Z,14.80
2019-05-15T16:57:11.532Z,14.90
2019-05-15T16:59:38.997Z,14.10
2019-05-15T17:02:08.484Z,14.10
2019-05-15T17:04:34.097Z,14.70
2019-05-15T17:07:00.593Z,14.90
2019-05-15T17:09:28.074Z,13.90
2019-05-15T17:11:54.731Z,14.20
2019-05-15T17:14:21.487Z,14.40
2019-05-15T17:16:48.160Z,14.60
2019-05-15T17:19:14.817Z,15.10
2019-05-15T17:21:41.292Z,13.70
2019-05-15T17:24:08.879Z,14.50
2019-05-15T17:26:35.791Z,14.50
2019-05-15T17:29:02.434Z,14.40
2019-05-15T17:31:29.101Z,14.10
2019-05-15T17:33:58.051Z,15.50
2019-05-15T17:36:24.337Z,16.60
2019-05-15T17:38:50.918Z,16.00
2019-05-15T17:41:17.587Z,15.70
2019-05-15T17:43:44.405Z,15.70
2019-05-15T17:46:11.354Z,15.40
2019-05-15T17:48:38.854Z,16.20
2019-05-15T17:51:05.701Z,16.20
2019-05-15T17:53:32.478Z,16.80
2019-05-15T17:55:59.039Z,16.50
2019-05-15T17:58:25.626Z,16.30
2019-05-15T18:00:52.413Z,17.00
2019-05-15T18:03:19.229Z,16.00
2019-05-15T18:05:48.279Z,16.50
2019-05-15T18:08:14.373Z,16.40
2019-05-15T18:10:40.769Z,16.60
2019-05-15T18:13:08.984Z,17.40
2019-05-15T18:15:38.385Z,17.60
2019-05-15T18:18:04.516Z,17.40
2019-05-15T18:20:31.097Z,17.40
2019-05-15T18:22:59.119Z,18.70
2019-05-15T18:25:25.940Z,18.20
2019-05-15T18:27:52.402Z,17.60
2019-05-15T18:30:19.186Z,17.80
2019-05-15T18:32:48.458Z,18.40
2019-05-15T18:35:14.127Z,19.00
2019-05-15T18:37:40.793Z,18.40
2019-05-15T18:40:10.032Z,19.60
2019-05-15T18:42:38.626Z,19.50
2019-05-15T18:45:07.064Z,19.20
2019-05-15T18:47:33.647Z,18.60
2019-05-15T18:50:05.659Z,20.00
2019-05-15T18:52:28.853Z,19.80
2019-05-15T18:54:55.362Z,19.90
2019-05-15T18:57:21.933Z,19.80
2019-05-15T18:59:48.779Z,20.40
2019-05-15T19:02:19.042Z,20.00
2019-05-15T19:04:44.241Z,19.70
2019-05-15T19:07:10.834Z,20.50
2019-05-15T19:09:38.620Z,21.20
2019-05-15T19:12:05.778Z,20.60
2019-05-15T19:14:32.359Z,20.90
2019-05-15T19:16:59.264Z,20.50
2019-05-15T19:19:28.115Z,21.40
2019-05-15T19:22:14.013Z,22.10
2019-05-15T19:24:40.606Z,21.90
2019-05-15T19:27:08.001Z,22.30
2019-05-15T19:29:34.533Z,22.40
2019-05-15T19:32:00.985Z,22.40
2019-05-15T19:34:28.135Z,23.00
2019-05-15T19:36:54.737Z,22.10
2019-05-15T19:39:21.276Z,23.00
2019-05-15T19:41:47.788Z,23.20
2019-05-15T19:44:14.447Z,23.60
2019-05-15T19:46:40.921Z,23.50
2019-05-15T19:49:08.745Z,24.20
2019-05-15T19:51:35.352Z,24.40
2019-05-15T19:54:01.808Z,23.60
2019-05-15T19:56:28.545Z,24.80
2019-05-15T19:58:54.991Z,24.30
2019-05-15T20:01:21.491Z,25.30
2019-05-15T20:03:52.869Z,25.10
2019-05-15T20:06:18.679Z,26.00
2019-05-15T20:08:44.812Z,25.70
2019-05-15T20:11:11.665Z,25.70
2019-05-15T20:13:38.440Z,26.90
2019-05-15T20:16:05.293Z,26.80
2019-05-15T20:18:31.889Z,26.90
2019-05-15T20:20:58.608Z,27.00
2019-05-15T20:23:25.412Z,27.30
2019-05-15T20:25:51.968Z,27.70
2019-05-15T20:28:19.117Z,26.70
2019-05-15T20:30:48.089Z,27.70
2019-05-15T20:33:14.075Z,28.00
2019-05-15T20:35:41.007Z,27.20
2019-05-15T20:38:07.464Z,27.90
2019-05-15T20:40:33.959Z,28.40
2019-05-15T20:43:00.424Z,29.20
2019-05-15T20:45:29.246Z,28.80
2019-05-15T20:47:55.361Z,29.20
2019-05-15T20:50:21.940Z,28.50
2019-05-15T20:52:49.172Z,28.80
2019-05-15T20:55:16.081Z,29.70
2019-05-15T20:57:42.536Z,29.90
2019-05-15T21:00:10.630Z,29.70
2019-05-15T21:02:38.074Z,30.00
2019-05-15T21:05:05.127Z,31.20
2019-05-15T21:07:38.535Z,31.40
2019-05-15T21:10:00.061Z,30.90
2019-05-15T21:12:29.410Z,30.70
2019-05-15T21:14:54.904Z,31.40
2019-05-15T21:17:21.396Z,31.70
2019-05-15T21:19:48.913Z,32.50
2019-05-15T21:22:35.589Z,32.20
2019-05-15T21:25:02.948Z,31.60
2019-05-15T21:27:32.642Z,32.90
2019-05-15T21:29:59.214Z,33.00
2019-05-15T21:32:28.095Z,32.90
2019-05-15T21:34:54.302Z,33.00
2019-05-15T21:37:20.757Z,33.20
2019-05-15T21:39:48.494Z,33.50
2019-05-15T21:42:18.238Z,31.90
2019-05-15T21:44:44.433Z,31.90
2019-05-15T21:47:12.229Z,32.30
2019-05-15T21:49:39.786Z,33.00
2019-05-15T21:52:07.655Z,32.20
2019-05-15T21:54:35.944Z,29.80
2019-05-15T21:57:24.926Z,31.40
2019-05-15T21:59:34.196Z,31.50
2019-05-15T22:02:01.170Z,30.80
2019-05-15T22:04:30.257Z,30.60
2019-05-15T22:06:58.426Z,31.50
2019-05-15T22:09:28.933Z,33.20
2019-05-15T22:11:58.381Z,32.40
2019-05-15T22:14:24.464Z,32.40
2019-05-15T22:16:51.370Z,33.70
2019-05-15T22:19:20.790Z,33.60
2019-05-15T22:21:48.989Z,33.60
2019-05-15T22:24:18.208Z,35.20
2019-05-15T22:26:45.461Z,35.20
2019-05-15T22:29:13.444Z,35.50
2019-05-15T22:31:41.520Z,35.70
2019-05-15T22:34:08.595Z,36.30
2019-05-15T22:36:35.657Z,37.40
2019-05-15T22:39:08.438Z,36.80
2019-05-15T22:41:35.239Z,36.60
2019-05-15T22:44:02.404Z,36.10
2019-05-15T22:46:29.307Z,36.70
2019-05-15T22:48:58.886Z,36.70
2019-05-15T22:51:25.063Z,38.00
2019-05-15T22:53:51.736Z,36.80
2019-05-15T22:56:18.403Z,37.90
2019-05-15T22:58:45.490Z,36.30
2019-05-15T23:01:12.355Z,35.30
2019-05-15T23:03:40.817Z,35.00
2019-05-15T23:06:08.316Z,34.60
2019-05-15T23:08:35.470Z,34.20
2019-05-15T23:11:02.427Z,34.80
2019-05-15T23:13:29.330Z,34.80
2019-05-15T23:15:58.345Z,34.10
2019-05-15T23:18:24.776Z,34.00
2019-05-15T23:20:51.631Z,32.40
2019-05-15T23:23:19.428Z,32.10
2019-05-15T23:25:48.561Z,35.00
2019-05-15T23:28:15.983Z,35.60
2019-05-15T23:30:42.532Z,36.20
2019-05-15T23:33:10.101Z,35.60
2019-05-15T23:35:40.785Z,37.20
2019-05-15T23:38:08.300Z,37.00
2019-05-15T23:40:35.545Z,37.80
2019-05-15T23:43:03.726Z,37.70
2019-05-15T23:45:30.767Z,38.90
2019-05-15T23:47:58.003Z,38.20
2019-05-15T23:50:25.577Z,39.00
2019-05-15T23:52:52.491Z,40.50
2019-05-15T23:55:19.481Z,40.20
2019-05-15T23:57:48.471Z,40.50
